User Preferences

Timezone
Units
Lat/Lon format
Defaults

Geo and time bounds

073 - SCRIPPS PIER, LA JOLLA CA   Notice:02/14/2024 Cleaned sensor Data set:
742 records
Date
(PDT)
Hs
(ft)
Tp
(s)
Ta
(s)
Depth
(ft)
Wind sp
(kt)
Wind dir
(deg)
2023-03-31 16:45 2.62 7.76 5.75 16.37 9.1 325
2023-03-31 15:45 2.82 7.76 6.20 15.45 8.7 316
2023-03-31 14:45 2.79 9.85 6.18 14.73 8.4 324
2023-03-31 13:45 2.89 8.00 6.07 14.30 8.5 323
2023-03-31 12:45 2.99 9.48 6.31 14.37 7.5 306
2023-03-31 11:45 2.92 10.24 6.17 14.80 6.5 316
2023-03-31 10:45 3.18 9.85 6.24 15.58 7.0 341
2023-03-31 09:45 3.54 10.24 6.55 16.54 5.7 334
2023-03-31 08:45 3.22 10.24 6.37 17.42 0.6 90
2023-03-31 07:45 3.44 8.83 6.45 18.14 5.3 103
2023-03-31 06:45 3.28 8.83 6.43 18.54 6.4 83
2023-03-31 05:45 3.54 7.76 6.40 18.60 7.0 86
2023-03-31 04:45 3.41 11.13 6.46 18.37 6.7 90
2023-03-31 03:45 3.87 8.26 6.55 17.91 5.2 94
2023-03-31 02:45 3.74 7.53 6.78 17.42 4.9 100
2023-03-31 01:45 3.67 8.53 7.10 17.03 3.1 102
2023-03-31 00:45 3.64 9.14 6.92 16.90 1.7 93
2023-03-30 23:45 4.07 7.53 7.14 16.99 4.7 61
2023-03-30 22:45 3.94 9.14 7.00 17.32 5.4 29
2023-03-30 21:45 4.10 9.85 7.33 17.68 8.0 340
2023-03-30 20:45 3.87 11.13 7.32 17.95 4.6 326
2023-03-30 19:45 4.13 10.67 7.22 18.01 4.8 334
2023-03-30 18:45 3.81 10.67 6.97 17.78 4.6 267
2023-03-30 17:45 4.17 11.13 6.87 17.32 7.3 268
2023-03-30 16:45 4.00 11.64 6.54 16.63 8.8 231
2023-03-30 15:45 4.30 12.19 6.52 15.85 11.1 224
2023-03-30 14:45 3.97 8.00 5.88 15.09 13.4 223
2023-03-30 13:45 4.23 12.19 5.97 14.57 13.4 230
2023-03-30 12:45 4.13 6.40 5.87 14.40 11.9 229
2023-03-30 11:45 4.00 5.57 5.72 14.60 7.0 242
2023-03-30 10:45 4.53 6.74 5.62 15.06 0.7 207
2023-03-30 09:45 4.56 4.92 5.62 15.81 5.3 265
2023-03-30 08:45 4.17 5.02 5.42 16.67 13.3 216
2023-03-30 07:45 4.30 4.92 5.62 17.42 10.1 239
2023-03-30 06:45 4.10 4.49 5.67 17.95 11.6 266
2023-03-30 05:45 4.00 4.83 5.82 18.27 13.2 269
2023-03-30 04:45 3.67 9.85 5.62 18.37 8.5 271
2023-03-30 03:45 3.71 10.67 5.68 18.21 14.7 255
2023-03-30 02:45 3.48 11.13 5.66 17.91 12.3 237
2023-03-30 01:45 3.25 11.13 5.56 17.65 14.7 251
2023-03-30 00:45 2.95 7.76 5.32 17.39 9.6 231
2023-03-29 23:45 2.79 7.53 5.15 17.36 12.5 252
2023-03-29 22:45 2.69 8.26 5.25 17.45 13.0 261
2023-03-29 21:45 2.36 8.26 6.00 17.59 5.0 249
2023-03-29 20:45 2.40 8.26 5.86 17.75 2.4 140
2023-03-29 19:45 2.40 8.26 5.42 17.78 2.6 204
2023-03-29 18:45 2.56 4.83 5.18 17.68 1.3 187
2023-03-29 17:45 2.72 6.92 5.02 17.39 1.6 188
2023-03-29 16:45 3.08 4.74 4.85 16.90 0.3 338
2023-03-29 15:45 3.02 4.41 4.50 16.31 3.2 3
2023-03-29 14:45 2.79 3.88 4.20 15.65 5.9 6
2023-03-29 13:45 2.49 4.06 3.98 15.09 8.1 347
2023-03-29 12:45 1.84 4.00 4.04 14.73 10.3 303
2023-03-29 11:45 1.25 4.06 4.79 14.63 13.2 187
2023-03-29 10:45 1.21 9.48 4.92 14.80 15.1 153
2023-03-29 09:45 1.25 4.92 4.57 15.22 15.1 162
2023-03-29 08:45 1.38 4.65 4.61 15.81 10.6 169
2023-03-29 07:45 1.35 4.49 4.65 16.50 7.7 139
2023-03-29 06:45 1.38 4.83 4.70 17.16 10.3 123
2023-03-29 05:45 1.41 4.41 4.74 17.72 7.3 114
2023-03-29 04:45 1.48 4.20 4.64 18.11 5.4 110
2023-03-29 03:45 1.51 4.34 4.57 18.31 6.0 113
2023-03-29 02:45 1.64 4.65 4.59 18.27 4.7 113
2023-03-29 01:45 1.71 4.83 4.58 18.14 1.6 143
2023-03-29 00:45 1.71 4.49 4.65 17.91 2.3 160
2023-03-28 23:45 1.67 4.41 4.42 17.75 2.8 156
2023-03-28 22:45 1.74 5.12 4.35 17.72 2.2 168
2023-03-28 21:45 1.74 4.57 4.25 17.62 2.2 309
2023-03-28 20:45 1.84 4.00 4.30 17.65 6.4 313
2023-03-28 19:45 1.94 3.82 4.20 17.55 5.9 308
2023-03-28 18:45 1.80 3.28 4.18 17.45 4.9 319
2023-03-28 17:45 1.51 4.65 4.43 17.29 5.5 316
2023-03-28 16:45 1.44 4.34 4.63 16.99 6.7 303
2023-03-28 15:45 1.44 4.74 4.61 16.63 6.2 302
2023-03-28 14:45 1.48 3.32 4.55 16.21 6.6 288
2023-03-28 13:45 1.35 4.13 4.57 15.75 5.0 293
2023-03-28 12:45 1.44 4.06 4.44 15.32 5.2 282
2023-03-28 11:45 1.41 11.13 4.63 14.96 3.2 294
2023-03-28 10:45 1.38 3.76 4.50 14.86 8.7 253
2023-03-28 09:45 1.38 3.76 4.62 14.99 4.8 17
2023-03-28 08:45 1.35 3.66 4.66 15.26 0.2 259
2023-03-28 07:45 1.51 11.13 4.92 15.72 1.1 117
2023-03-28 06:45 1.51 4.06 4.76 16.34 1.7 126
2023-03-28 05:45 1.64 9.85 4.80 16.96 0.5 72
2023-03-28 04:45 1.64 4.49 4.83 17.55 1.4 148
2023-03-28 03:45 1.57 5.22 5.28 18.11 0.4 134
2023-03-28 02:45 1.51 5.69 5.55 18.47 1.1 136
2023-03-28 01:45 1.54 11.13 5.52 18.60 3.5 149
2023-03-28 00:45 1.54 11.64 5.57 18.54 2.8 166
2023-03-27 23:45 1.74 7.31 5.62 18.34 1.6 128
2023-03-27 22:45 1.94 7.31 5.76 18.04 2.1 153
2023-03-27 21:45 2.00 10.67 5.93 17.81 1.7 11
2023-03-27 20:45 2.13 6.92 5.72 17.55 1.1 14
2023-03-27 19:45 2.23 6.92 5.84 17.32 1.6 30
2023-03-27 18:45 2.10 7.53 5.80 17.22 6.8 12
2023-03-27 17:45 2.26 11.64 5.76 17.09 4.2 19
2023-03-27 16:45 2.30 11.64 5.58 16.99 6.6 346
2023-03-27 15:45 2.36 8.00 5.52 16.86 8.5 352
2023-03-27 14:45 2.56 8.00 5.59 16.70 6.3 352
2023-03-27 13:45 2.59 7.76 5.65 16.40 7.1 348
2023-03-27 12:45 2.62 6.56 5.66 16.08 6.9 324
2023-03-27 11:45 3.08 6.92 5.71 15.65 3.2 335
2023-03-27 10:45 3.22 6.24 5.88 15.29 3.1 353
2023-03-27 09:45 3.22 7.31 5.84 14.99 3.1 347
2023-03-27 08:45 3.38 5.69 5.87 14.93 0.2 310
2023-03-27 07:45 4.07 6.74 5.92 14.99 1.6 131
2023-03-27 06:45 4.10 6.92 6.04 15.39 1.7 105
2023-03-27 05:45 3.77 9.14 6.04 16.04 4.1 89
2023-03-27 04:45 3.81 5.82 5.94 16.77 6.8 96
2023-03-27 03:45 3.90 10.67 6.04 17.59 6.9 102
2023-03-27 02:45 3.90 5.82 5.97 18.27 4.7 112
2023-03-27 01:45 4.00 5.69 5.82 18.80 4.6 105
2023-03-27 00:45 3.90 5.69 5.97 18.96 1.3 125
2023-03-26 23:45 3.87 6.10 5.95 18.90 1.1 52
2023-03-26 22:45 3.90 5.69 5.80 18.60 4.2 42
2023-03-26 21:45 4.00 6.74 5.77 18.11 3.7 35
2023-03-26 20:45 4.40 5.33 5.60 17.55 7.4 347
2023-03-26 19:45 4.33 6.40 5.56 17.06 7.3 347
2023-03-26 18:45 4.33 6.56 5.72 16.77 7.1 335
2023-03-26 17:45 4.27 6.74 5.80 16.63 7.8 297
2023-03-26 16:45 4.66 10.24 6.02 16.67 8.3 319
2023-03-26 15:45 4.30 11.13 6.05 16.80 9.8 318
2023-03-26 14:45 4.40 9.48 6.04 16.93 10.7 309
2023-03-26 13:45 4.56 10.67 6.11 16.99 10.4 309
2023-03-26 12:45 4.63 9.14 6.27 16.86 7.2 297
2023-03-26 11:45 5.02 9.85 6.19 16.50 7.7 287
2023-03-26 10:45 5.35 10.24 6.33 16.04 5.8 281
2023-03-26 09:45 4.56 10.67 5.86 15.49 1.8 289
2023-03-26 08:45 4.63 7.31 5.67 14.99 5.5 128
2023-03-26 07:45 4.72 6.10 5.73 14.70 6.9 114
2023-03-26 06:45 4.89 8.53 5.96 14.70 7.6 126
2023-03-26 05:45 5.51 7.53 6.16 15.12 8.5 115
2023-03-26 04:45 5.45 10.24 6.41 15.85 9.0 112
2023-03-26 03:45 5.35 11.13 6.58 16.86 8.6 114
2023-03-26 02:45 4.56 13.47 6.59 17.88 6.9 117
2023-03-26 01:45 4.04 7.53 6.60 18.77 4.8 141
2023-03-26 00:45 3.77 8.53 6.50 19.29 4.1 142
2023-03-25 23:45 3.90 9.14 6.49 19.46 2.5 144
2023-03-25 22:45 3.67 7.53 6.27 19.23 3.8 124
2023-03-25 21:45 3.54 8.26 6.02 18.70 2.1 143
2023-03-25 20:45 3.44 9.48 5.90 17.95 4.4 321
2023-03-25 19:45 3.44 8.53 6.07 17.13 6.2 335
2023-03-25 18:45 3.48 8.83 6.16 16.50 7.2 332
2023-03-25 17:45 3.74 8.83 6.18 16.21 8.0 306
2023-03-25 16:45 3.44 8.83 6.11 16.24 8.7 307
2023-03-25 15:45 3.41 8.26 6.05 16.50 9.2 287
2023-03-25 14:45 3.35 8.83 6.32 16.93 8.6 267
2023-03-25 13:45 3.54 8.83 6.29 17.39 7.9 248
2023-03-25 12:45 3.67 6.92 6.09 17.55 8.0 244
2023-03-25 11:45 3.54 8.26 6.14 17.52 6.9 243
2023-03-25 10:45 3.15 8.53 6.09 17.09 6.0 250
2023-03-25 09:45 3.22 7.53 6.18 16.44 2.1 151
2023-03-25 08:45 3.61 8.26 6.29 15.62 6.0 118
2023-03-25 07:45 4.00 8.26 6.34 14.90 8.4 102
2023-03-25 06:45 4.30 8.83 6.23 14.50 7.9 114
2023-03-25 05:45 4.49 8.83 6.16 14.50 7.7 109
2023-03-25 04:45 5.09 9.48 6.29 14.99 7.2 122
2023-03-25 03:45 4.86 6.74 6.06 15.91 6.0 117
2023-03-25 02:45 4.86 8.53 6.15 17.16 4.9 109
2023-03-25 01:45 4.43 7.53 6.20 18.44 7.0 117
2023-03-25 00:45 4.23 8.53 6.23 19.36 6.1 117
2023-03-24 23:45 4.10 8.00 6.39 19.88 3.3 134
2023-03-24 22:45 3.84 6.92 5.99 19.85 3.1 135
2023-03-24 21:45 4.10 7.53 5.93 19.29 2.1 215
2023-03-24 20:45 3.97 6.24 5.70 18.34 4.4 268
2023-03-24 19:45 3.97 7.31 5.40 17.29 3.7 308
2023-03-24 18:45 4.27 7.76 5.52 16.37 3.6 318
2023-03-24 17:45 4.36 8.26 5.34 15.75 7.4 293
2023-03-24 16:45 4.46 8.00 5.25 15.55 8.7 293
2023-03-24 15:45 4.46 8.53 5.58 15.88 8.3 288
2023-03-24 14:45 4.99 7.11 5.76 16.54 9.7 275
2023-03-24 13:45 5.02 7.31 5.87 17.32 9.1 259
2023-03-24 12:45 5.18 8.00 5.85 18.04 9.6 241
2023-03-24 11:45 4.95 9.14 5.94 18.34 7.6 242
2023-03-24 10:45 4.66 7.31 5.94 18.21 8.4 229
2023-03-24 09:45 4.49 8.00 5.97 17.62 4.8 241
2023-03-24 08:45 4.72 7.76 5.99 16.70 3.2 158
2023-03-24 07:45 5.05 8.00 5.88 15.62 4.9 133
2023-03-24 06:45 4.66 9.14 5.97 14.73 5.3 111
2023-03-24 05:45 4.92 7.76 5.90 14.27 3.7 105
2023-03-24 04:45 5.28 8.00 5.89 14.34 5.8 110
2023-03-24 03:45 5.31 7.31 5.78 15.06 0.9 117
2023-03-24 02:45 5.22 7.31 5.76 16.21 2.5 286
2023-03-24 01:45 5.38 6.92 5.74 17.62 7.4 262
2023-03-24 00:45 5.12 7.53 5.82 18.96 7.7 281
2023-03-23 23:45 5.38 7.31 5.78 19.85 10.5 284
2023-03-23 22:45 5.15 7.31 6.02 20.18 11.7 287
2023-03-23 21:45 4.79 8.00 5.88 19.82 11.0 284
2023-03-23 20:45 4.69 8.83 5.83 18.86 11.3 288
2023-03-23 19:45 4.89 5.82 5.46 17.62 11.7 297
2023-03-23 18:45 5.28 8.83 5.68 16.34 12.1 290
2023-03-23 17:45 5.31 10.67 5.66 15.35 12.8 295
2023-03-23 16:45 5.48 10.24 5.92 14.90 10.8 299
2023-03-23 15:45 5.05 11.64 6.06 15.09 12.3 309
2023-03-23 14:45 4.89 12.80 6.53 15.78 12.7 308
2023-03-23 13:45 4.95 12.19 6.83 16.86 8.9 291
2023-03-23 12:45 4.56 11.13 6.89 18.01 8.2 314
2023-03-23 11:45 4.56 11.64 7.38 18.86 6.2 336
2023-03-23 10:45 4.17 11.64 7.28 19.23 4.3 315
2023-03-23 09:45 3.90 10.67 7.28 18.93 4.2 291
2023-03-23 08:45 3.84 12.80 7.25 18.08 7.6 287
2023-03-23 07:45 4.04 12.80 7.16 16.93 5.2 294
2023-03-23 06:45 4.07 12.19 6.79 15.65 5.4 275
2023-03-23 05:45 4.56 12.80 6.55 14.67 2.2 141
2023-03-23 04:45 4.46 12.80 6.73 14.27 7.0 351
2023-03-23 03:45 4.92 13.47 6.47 14.53 2.7 317
2023-03-23 02:45 5.12 9.48 6.56 15.45 6.2 341
2023-03-23 01:45 5.18 9.85 6.83 16.83 7.3 313
2023-03-23 00:45 4.99 9.85 6.85 18.27 9.8 301
2023-03-22 23:45 5.31 9.85 6.88 19.49 8.8 301
2023-03-22 22:45 5.38 8.83 7.47 20.21 10.5 309
2023-03-22 21:45 5.18 7.31 7.16 20.14 9.9 304
2023-03-22 20:45 5.38 11.64 7.46 19.36 10.5 290
2023-03-22 19:45 5.12 8.53 7.10 18.11 7.6 212
2023-03-22 18:45 5.05 10.67 6.93 16.57 10.7 236
2023-03-22 17:45 5.58 11.13 6.61 15.26 8.6 197
2023-03-22 16:45 5.81 10.67 6.46 14.40 12.1 208
2023-03-22 15:45 5.58 10.24 6.57 14.27 12.7 216
2023-03-22 14:45 5.64 10.67 6.59 14.90 11.5 206
2023-03-22 13:45 5.74 9.48 6.62 15.98 11.9 213
2023-03-22 12:45 5.41 9.48 6.77 17.42 11.8 219
2023-03-22 11:45 5.54 9.48 6.93 18.80 10.8 232
2023-03-22 10:45 5.74 8.83 6.86 19.69 9.3 231
2023-03-22 09:45 5.54 9.14 6.80 19.91 9.4 231
2023-03-22 08:45 5.45 9.48 6.44 19.42 9.6 224
2023-03-22 07:45 6.04 9.85 6.54 18.31 7.9 246
2023-03-22 06:45 5.58 10.24 6.13 16.93 10.8 236
2023-03-22 05:25 5.97 10.24 6.05 15.19 7.3 239
2023-03-22 04:05 6.07 8.26 5.55 14.40 16.3 250
2023-03-22 02:45 5.54 9.48 5.68 14.90 15.1 241
2023-03-22 01:25 6.07 9.85 5.83 16.40 18.0 245
2023-03-22 00:05 5.87 9.48 6.20 18.31 18.0 241
2023-03-21 22:45 5.31 9.85 6.42 19.78 18.3 234
2023-03-21 21:45 4.53 8.26 6.82 20.14 16.1 224
2023-03-21 20:45 5.64 8.26 7.07 19.65 11.3 179
2023-03-21 19:45 4.49 8.00 6.85 18.57 13.9 190
2023-03-21 18:45 4.23 7.31 6.42 16.99 19.4 172
2023-03-21 17:45 3.58 7.76 6.15 15.42 18.1 173
2023-03-21 16:45 3.58 6.74 5.91 14.30 15.2 173
2023-03-21 15:45 3.58 7.11 5.66 13.75 14.5 176
2023-03-21 14:45 3.15 7.11 5.38 14.04 13.7 187
2023-03-21 13:45 3.05 7.31 5.30 15.09 10.5 203
2023-03-21 12:45 3.02 6.92 5.36 16.50 12.9 207
2023-03-21 11:45 2.53 7.11 5.61 18.21 13.3 189
2023-03-21 10:45 2.36 8.00 5.42 19.55 19.0 193
2023-03-21 09:45 2.13 7.76 5.88 20.37 24.4 162
2023-03-21 08:45 2.07 7.76 5.95 20.41 24.5 161
2023-03-21 07:45 1.94 7.76 5.90 19.65 20.0 164
2023-03-21 06:45 2.36 7.76 5.56 18.34 16.6 172
2023-03-21 05:45 2.33 7.53 5.54 16.86 13.3 174
2023-03-21 04:45 2.56 7.76 5.62 15.55 9.3 174
2023-03-21 03:45 2.62 7.76 5.44 14.80 8.2 178
2023-03-21 02:45 2.72 6.56 5.57 14.70 10.0 158
2023-03-21 01:45 2.85 7.11 5.73 15.32 3.9 176
2023-03-21 00:45 2.79 7.53 5.68 16.40 5.1 192
2023-03-20 23:45 2.69 7.11 5.58 17.75 3.0 177
2023-03-20 22:45 2.62 7.53 5.55 18.90 6.2 225
2023-03-20 21:45 2.49 5.95 5.54 19.59 2.5 182
2023-03-20 20:45 2.40 6.10 5.47 19.55 6.4 217
2023-03-20 19:45 2.26 6.40 5.35 18.73 6.0 231
2023-03-20 18:45 2.33 6.56 5.31 17.36 5.5 253
2023-03-20 17:45 2.10 6.56 5.16 15.75 7.3 267
2023-03-20 16:45 2.07 6.40 5.06 14.34 6.3 252
2023-03-20 15:45 2.10 6.92 5.05 13.48 3.9 281
2023-03-20 14:45 2.10 6.56 5.15 13.29 7.0 283
2023-03-20 13:45 2.10 6.40 5.05 13.98 7.7 282
2023-03-20 12:45 2.10 6.10 5.32 15.32 9.5 277
2023-03-20 11:45 2.13 6.24 5.37 17.03 6.3 235
2023-03-20 10:45 2.03 6.10 5.46 18.77 7.7 226
2023-03-20 09:45 2.07 5.95 5.41 20.05 7.4 231
2023-03-20 08:45 1.90 5.57 5.14 20.64 6.8 220
2023-03-20 07:45 1.54 5.45 5.31 20.47 7.0 186
2023-03-20 06:45 1.57 5.45 5.26 19.62 7.8 209
2023-03-20 05:45 1.48 5.02 5.13 18.24 8.1 204
2023-03-20 04:45 1.57 4.92 4.84 16.86 8.1 208
2023-03-20 03:45 1.61 4.83 4.63 15.78 10.6 198
2023-03-20 02:45 1.80 4.74 4.54 15.19 13.4 184
2023-03-20 01:45 1.54 4.41 4.54 15.26 14.3 170
2023-03-20 00:45 1.25 4.34 4.50 15.91 12.2 158
2023-03-19 23:45 1.08 3.66 4.74 16.99 11.6 158
2023-03-19 22:45 0.95 10.67 5.21 18.11 13.1 161
2023-03-19 21:45 0.82 11.13 6.57 18.93 11.5 161
2023-03-19 20:45 0.82 11.64 7.34 19.16 7.1 168
2023-03-19 19:45 0.79 11.13 6.71 18.80 7.0 162
2023-03-19 18:45 0.85 10.67 5.31 17.72 6.7 158
2023-03-19 17:45 0.95 11.64 4.99 16.31 3.9 182
2023-03-19 16:45 0.75 11.64 6.47 14.80 6.5 190
2023-03-19 15:45 0.72 11.64 5.53 13.62 5.8 202
2023-03-19 14:45 0.75 11.64 5.53 13.12 6.0 208
2023-03-19 13:45 0.75 11.64 5.85 13.32 6.6 221
2023-03-19 12:45 0.75 11.13 6.77 14.30 8.1 228
2023-03-19 11:45 0.69 11.13 7.17 15.81 9.0 218
2023-03-19 10:45 0.79 11.64 8.12 17.52 4.7 220
2023-03-19 09:45 0.75 10.67 7.96 19.06 6.1 224
2023-03-19 08:45 0.79 12.19 8.00 20.14 3.8 217
2023-03-19 07:45 0.85 11.13 7.82 20.54 2.1 102
2023-03-19 06:45 0.75 12.19 7.67 20.21 3.5 151
2023-03-19 05:45 0.79 11.64 7.65 19.29 6.5 109
2023-03-19 04:45 0.79 12.19 7.39 18.11 4.1 142
2023-03-19 03:45 0.75 12.19 6.68 16.93 2.0 32
2023-03-19 02:45 0.72 8.83 6.62 16.08 1.3 167
2023-03-19 01:45 0.72 12.19 6.57 15.78 0.2 84
2023-03-19 00:45 0.72 11.13 6.84 16.01 0.8 35
2023-03-18 23:45 0.72 12.19 6.92 16.63 1.9 187
2023-03-18 22:45 0.75 9.48 6.75 17.52 1.1 93
2023-03-18 21:45 0.79 11.64 6.89 18.27 1.0 41
2023-03-18 20:45 0.79 11.64 6.50 18.73 0.1 141
2023-03-18 19:45 0.85 11.64 6.38 18.64 0.9 124
2023-03-18 18:45 0.89 11.64 5.72 17.95 3.9 34
2023-03-18 17:45 0.89 12.19 5.64 16.83 4.3 2
2023-03-18 16:45 0.92 12.80 5.36 15.49 2.5 357
2023-03-18 15:45 0.92 11.13 5.15 14.24 2.9 352
2023-03-18 14:45 0.95 11.13 5.02 13.42 2.4 16
2023-03-18 13:45 1.02 10.24 5.07 13.22 3.1 354
2023-03-18 12:45 1.05 10.24 5.27 13.68 3.1 357
2023-03-18 11:45 1.12 11.13 5.25 14.76 1.4 344
2023-03-18 10:45 1.25 9.48 5.48 16.21 0.9 357
2023-03-18 09:45 1.28 9.85 5.63 17.78 1.2 15
2023-03-18 08:45 1.25 9.48 5.73 19.09 0.4 347
2023-03-18 07:45 1.38 10.24 5.91 19.95 3.1 155
2023-03-18 06:45 1.35 9.48 5.38 20.18 0.5 151
2023-03-18 05:45 1.48 4.06 5.29 19.82 0.4 149
2023-03-18 04:45 1.51 9.85 5.46 19.09 0.5 124
2023-03-18 03:45 1.67 10.67 5.43 18.08 0.4 81
2023-03-18 02:45 1.67 4.57 5.17 17.22 0.2 163
2023-03-18 01:45 1.54 9.85 5.27 16.60 1.0 347
2023-03-18 00:45 1.64 9.85 5.17 16.37 4.2 41
2023-03-17 23:45 1.57 3.32 5.17 16.67 3.4 29
2023-03-17 22:45 1.67 9.85 5.47 17.16 3.4 28
2023-03-17 21:45 1.80 10.67 6.33 17.75 3.6 25
2023-03-17 20:45 1.80 10.24 6.79 18.21 5.0 348
2023-03-17 19:45 1.61 10.24 6.73 18.27 7.5 334
2023-03-17 18:45 1.54 10.67 6.82 17.95 6.9 342
2023-03-17 17:45 1.51 11.13 6.77 17.16 5.5 330
2023-03-17 16:45 1.57 10.67 6.64 16.11 5.9 321
2023-03-17 15:45 1.64 11.64 6.56 14.96 6.5 316
2023-03-17 14:45 1.48 7.31 6.35 14.01 7.1 321
2023-03-17 13:45 1.48 8.53 6.36 13.48 8.1 324
2023-03-17 12:45 1.51 8.26 6.26 13.52 7.9 322
2023-03-17 11:45 1.64 7.31 6.35 14.07 6.8 327
2023-03-17 10:45 1.67 8.26 6.41 15.12 5.6 325
2023-03-17 09:45 1.64 8.53 6.23 16.44 4.6 344
2023-03-17 08:45 1.80 8.26 6.36 17.75 6.5 19
2023-03-17 07:45 1.87 7.11 6.42 18.80 3.7 21
2023-03-17 06:45 1.97 8.53 6.62 19.46 4.3 41
2023-03-17 05:45 1.87 8.53 6.38 19.65 4.9 51
2023-03-17 04:45 1.94 8.26 6.41 19.42 2.4 130
2023-03-17 03:45 1.94 8.83 6.31 18.86 4.1 111
2023-03-17 02:45 1.94 8.83 6.36 18.18 6.0 101
2023-03-17 01:45 2.10 8.26 6.33 17.55 5.3 107
2023-03-17 00:45 2.00 8.83 6.45 17.13 4.3 116
2023-03-16 23:45 2.17 8.53 6.68 16.99 4.9 99
2023-03-16 22:45 2.17 9.14 6.61 17.16 4.4 98
2023-03-16 21:45 2.46 7.76 6.66 17.42 3.1 108
2023-03-16 20:45 2.49 8.00 6.53 17.72 3.0 146
2023-03-16 19:45 2.56 8.83 6.50 17.88 2.9 159
2023-03-16 18:45 2.53 9.14 6.32 17.72 5.5 232
2023-03-16 17:45 2.72 8.83 6.27 17.29 6.5 240
2023-03-16 16:45 2.85 9.14 6.27 16.60 2.9 280
2023-03-16 15:45 2.89 8.00 6.16 15.72 2.2 298
2023-03-16 14:45 2.95 7.11 6.04 14.90 3.8 269
2023-03-16 13:45 3.12 8.00 5.96 14.24 6.5 263
2023-03-16 12:45 3.15 6.56 5.98 13.88 5.2 253
2023-03-16 11:45 3.22 7.53 5.99 14.01 4.2 277
2023-03-16 10:45 3.41 7.76 6.09 14.53 6.2 248
2023-03-16 09:45 3.84 8.26 6.06 15.42 4.0 212
2023-03-16 08:45 3.84 8.26 6.09 16.44 5.6 199
2023-03-16 07:45 4.13 9.14 6.14 17.49 2.7 166
2023-03-16 06:45 4.33 7.53 6.08 18.34 2.6 153
2023-03-16 05:45 4.23 8.00 6.24 18.96 1.9 111
2023-03-16 04:45 4.07 6.92 6.25 19.23 2.3 53
2023-03-16 03:45 4.53 8.26 6.33 19.16 2.0 62
2023-03-16 02:45 4.23 7.31 6.17 18.83 0.2 65
2023-03-16 01:45 4.10 7.11 6.39 18.37 1.4 141
2023-03-16 00:45 4.36 9.48 6.31 17.91 1.0 172
2023-03-15 23:45 4.00 8.53 6.35 17.59 1.4 259
2023-03-15 22:45 3.97 7.31 6.08 17.42 3.7 275
2023-03-15 21:45 3.84 10.24 6.15 17.32 7.6 281
2023-03-15 20:45 4.07 6.56 5.97 17.39 6.3 280
2023-03-15 19:45 3.61 5.45 5.65 17.42 7.4 284
2023-03-15 18:45 3.61 5.02 5.59 17.39 8.2 282
2023-03-15 17:45 3.31 4.57 5.43 17.22 8.0 279
2023-03-15 16:45 3.05 9.48 5.56 16.86 8.2 290
2023-03-15 15:45 2.85 10.67 5.80 16.37 7.8 294
2023-03-15 14:45 2.79 6.10 5.58 15.75 7.1 276
2023-03-15 13:45 3.12 10.67 5.81 15.16 11.4 245
2023-03-15 12:45 2.99 10.67 6.02 14.73 10.0 215
2023-03-15 11:45 3.05 10.67 5.91 14.47 13.8 197
2023-03-15 10:45 3.25 8.26 6.02 14.53 15.6 180
2023-03-15 09:45 3.18 9.48 6.07 14.90 13.9 168
2023-03-15 08:45 3.35 5.69 6.07 15.49 18.0 165
2023-03-15 07:45 3.05 5.45 5.88 16.31 19.5 162
2023-03-15 06:45 2.92 9.14 5.99 17.13 15.8 162
2023-03-15 05:45 2.40 9.85 6.10 17.88 18.9 174
2023-03-15 04:45 2.10 10.24 6.32 18.47 16.2 175
2023-03-15 03:45 1.94 10.67 6.55 18.83 16.8 165
2023-03-15 02:45 1.71 10.67 7.49 18.96 10.0 160
2023-03-15 01:45 1.84 11.13 8.37 18.86 12.4 156
2023-03-15 00:45 1.61 10.24 8.54 18.54 12.9 152
2023-03-14 23:45 1.77 10.67 8.53 18.21 10.6 163
2023-03-14 22:45 1.84 10.24 8.77 17.81 7.1 164
2023-03-14 21:45 1.97 11.13 8.41 17.45 4.4 146
2023-03-14 20:45 1.80 10.67 8.67 17.19 2.5 117
2023-03-14 19:45 2.10 11.13 8.80 16.99 4.6 127
2023-03-14 18:45 2.13 11.13 8.45 16.90 5.4 187
2023-03-14 17:45 2.03 11.13 8.62 16.80 5.4 189
2023-03-14 16:45 1.94 11.13 8.64 16.67 1.8 189
2023-03-14 15:45 1.90 11.13 8.67 16.57 6.6 279
2023-03-14 14:45 1.87 11.64 8.32 16.27 4.8 125
2023-03-14 13:45 1.97 11.64 8.27 15.94 1.2 102
2023-03-14 12:45 1.87 11.64 8.05 15.58 2.9 4
2023-03-14 11:45 1.94 11.64 8.36 15.19 2.2 334
2023-03-14 10:45 1.97 11.64 8.13 14.96 2.6 326
2023-03-14 09:45 2.13 11.13 8.06 14.86 6.7 280
2023-03-14 08:45 2.26 12.19 8.35 14.99 2.7 7
2023-03-14 07:45 2.72 10.67 8.51 15.39 4.0 165
2023-03-14 06:45 2.53 11.64 8.37 16.01 3.1 119
2023-03-14 05:45 2.43 11.64 8.43 16.77 1.6 14
2023-03-14 04:45 2.46 11.13 8.69 17.52 2.6 223
2023-03-14 03:45 2.49 11.64 8.89 18.24 1.7 185
2023-03-14 02:45 2.33 11.13 8.98 18.80 1.3 43
2023-03-14 01:45 2.36 12.19 9.11 19.03 2.5 358
2023-03-14 00:45 2.40 10.24 8.79 19.03 2.4 25
2023-03-13 23:45 2.46 12.19 8.92 18.73 3.0 26
2023-03-13 22:45 2.72 12.80 8.99 18.27 2.9 331
2023-03-13 21:45 2.95 12.19 8.78 17.72 2.9 8
2023-03-13 20:45 2.72 12.19 8.52 17.19 5.2 337
2023-03-13 19:45 2.72 12.19 8.16 16.77 4.8 321
2023-03-13 18:45 2.69 11.64 8.46 16.47 3.6 314
2023-03-13 17:45 2.66 12.80 8.39 16.37 3.8 301
2023-03-13 16:45 2.49 11.64 8.50 16.44 5.1 293
2023-03-13 15:45 2.46 12.19 8.42 16.57 4.6 313
2023-03-13 14:45 2.43 12.19 8.04 16.67 4.9 304
2023-03-13 13:45 2.33 12.19 8.48 16.70 4.8 305
2023-03-13 12:45 2.26 8.53 8.13 16.54 5.8 303
2023-03-13 11:45 2.13 12.80 8.14 16.17 5.0 300
2023-03-13 10:45 2.17 12.80 8.29 15.72 3.6 326
2023-03-13 09:45 2.23 12.19 8.14 15.35 1.2 339
2023-03-13 08:45 2.43 13.47 7.98 15.06 3.4 333
2023-03-13 07:45 2.53 11.64 8.22 15.03 2.5 21
2023-03-13 06:45 2.46 12.80 7.87 15.22 2.2 347
2023-03-13 05:45 2.43 12.80 8.25 15.81 2.7 342
2023-03-13 04:45 2.36 12.80 7.70 16.54 3.4 358
2023-03-13 03:45 2.30 12.19 8.11 17.42 4.5 31
2023-03-13 02:45 2.20 12.19 7.51 18.27 4.9 18
2023-03-13 01:45 2.33 12.80 7.68 18.90 6.0 354
2023-03-13 00:45 2.53 8.00 7.73 19.19 5.2 343
2023-03-12 23:45 2.40 8.26 7.65 19.09 2.7 320
2023-03-12 22:45 2.56 13.47 7.72 18.73 4.1 333
2023-03-12 21:45 2.49 8.26 7.48 18.11 4.0 15
2023-03-12 20:45 2.53 13.47 7.44 17.39 3.7 356
2023-03-12 19:45 2.56 7.76 7.36 16.73 3.9 330
2023-03-12 18:45 2.66 13.47 7.20 16.21 4.3 334
2023-03-12 17:45 2.56 7.53 6.88 16.01 2.4 321
2023-03-12 16:45 2.43 7.31 7.02 16.04 2.9 321
2023-03-12 15:45 2.43 7.31 7.11 16.37 3.2 352
2023-03-12 14:45 2.36 7.76 7.12 16.77 6.3 319
2023-03-12 13:45 2.33 8.26 6.98 17.09 4.6 320
2023-03-12 12:45 2.36 7.53 6.58 17.22 4.8 335
2023-03-12 11:45 2.17 8.26 6.83 17.09 5.1 310
2023-03-12 10:45 2.23 8.00 6.49 16.73 1.2 318
2023-03-12 09:45 2.20 8.53 6.93 16.17 2.1 341
2023-03-12 08:45 2.20 7.53 6.91 15.55 1.4 355
2023-03-12 07:45 2.43 8.26 7.04 15.09 1.5 246
2023-03-12 06:45 2.59 8.26 6.93 14.90 4.3 12
2023-03-12 05:45 2.43 7.53 6.80 15.09 1.2 5
2023-03-12 04:45 2.59 8.53 6.67 15.72 2.6 318
2023-03-12 03:45 2.72 7.76 6.85 16.54 1.2 266
2023-03-12 02:45 2.79 8.00 6.95 17.55 1.8 335
2023-03-12 01:45 2.76 8.00 6.78 18.44 3.4 355
2023-03-12 00:45 2.79 8.00 6.70 19.03 0.7 295
2023-03-11 23:45 2.76 6.92 6.81 19.23 0.5 325
2023-03-11 22:45 2.82 7.53 6.68 18.96 0.1 312
2023-03-11 21:45 2.89 8.00 6.50 18.34 3.3 266
2023-03-11 20:45 3.12 8.83 6.67 17.49 2.8 231
2023-03-11 19:45 2.99 7.31 6.46 16.60 6.1 232
2023-03-11 18:45 2.89 7.31 6.47 15.91 1.2 319
2023-03-11 17:45 2.59 7.53 6.12 15.52 1.7 3
2023-03-11 16:45 2.62 7.11 6.18 15.55 4.2 259
2023-03-11 15:45 2.62 7.53 6.24 15.88 3.7 253
2023-03-11 14:45 2.59 7.76 6.09 16.50 9.5 250
2023-03-11 13:45 2.66 7.76 5.95 17.19 7.9 237
2023-03-11 12:45 2.40 7.53 6.04 17.68 7.9 220
2023-03-11 11:45 2.46 7.53 6.01 17.85 6.1 211
2023-03-11 10:45 2.49 7.76 6.08 17.62 5.5 176
2023-03-11 09:45 2.59 7.11 5.94 17.06 8.5 208
2023-03-11 08:45 2.66 7.76 6.04 16.37 4.5 179
2023-03-11 07:45 2.62 7.76 5.98 15.58 5.3 153
2023-03-11 06:45 2.53 8.00 5.84 15.03 5.3 149
2023-03-11 05:45 2.33 6.92 5.91 14.83 5.6 147
2023-03-11 04:45 2.23 6.92 5.78 15.09 4.7 159
2023-03-11 03:45 2.17 7.11 5.79 15.78 6.0 173
2023-03-11 02:45 2.20 8.00 5.97 16.73 6.8 173
2023-03-11 01:45 2.13 7.31 5.87 17.81 7.1 168
2023-03-11 00:45 2.00 8.00 5.93 18.67 10.6 145
2023-03-10 23:45 1.84 8.26 5.83 19.13 9.2 138
2023-03-10 22:45 1.80 7.31 5.71 19.06 8.9 140
2023-03-10 21:45 1.64 7.11 5.78 18.50 10.0 131
2023-03-10 20:45 1.44 8.00 5.94 17.65 10.4 147
2023-03-10 19:45 1.21 8.26 6.17 16.67 10.1 125
2023-03-10 18:45 0.98 8.83 6.55 15.75 10.7 127
2023-03-10 17:45 0.92 9.48 6.92 15.16 6.2 133
2023-03-10 16:45 0.92 12.19 6.28 14.96 6.9 145
2023-03-10 15:45 0.89 8.83 5.85 15.22 2.4 180
2023-03-10 14:45 0.95 9.85 5.66 15.98 4.3 162
2023-03-10 13:45 0.95 9.48 5.52 16.93 6.4 173
2023-03-10 12:45 1.02 12.19 5.67 17.75 3.8 51
2023-03-10 11:45 1.15 10.24 5.59 18.24 4.0 217
2023-03-10 10:45 1.15 3.16 5.19 18.37 2.4 315
2023-03-10 09:45 1.28 3.32 5.13 18.01 3.5 346
2023-03-10 08:45 1.25 5.69 5.16 17.22 1.7 23
2023-03-10 07:45 1.38 9.85 4.92 16.27 2.9 129
2023-03-10 06:45 1.48 6.92 5.04 15.45 2.3 127
2023-03-10 05:45 1.44 7.76 5.05 14.90 0.4 164
2023-03-10 04:45 1.57 4.13 4.92 14.80 0.5 148
2023-03-10 03:45 1.67 4.49 4.70 15.26 2.1 123
2023-03-10 02:45 1.80 7.76 4.84 16.11 1.5 113
2023-03-10 01:45 1.71 4.20 5.08 17.16 0.1 121
2023-03-10 00:45 1.84 10.67 5.13 18.14 0.7 154
2023-03-09 23:45 1.64 8.53 4.94 18.86 0.6 216
2023-03-09 22:45 1.44 9.14 5.41 19.06 0.5 129
2023-03-09 21:45 1.44 4.65 5.45 18.67 3.8 45
2023-03-09 20:45 1.54 4.57 5.17 17.88 5.5 11
2023-03-09 19:45 1.64 4.34 5.08 16.77 6.4 342
2023-03-09 18:45 1.57 4.41 5.13 15.75 5.7 328
2023-03-09 17:45 1.74 5.12 5.18 14.96 4.5 316
2023-03-09 16:45 1.84 10.67 5.17 14.57 6.5 323
2023-03-09 15:45 1.97 5.02 5.19 14.73 5.5 314
2023-03-09 14:45 1.97 9.14 5.25 15.39 6.1 316
2023-03-09 13:45 2.00 9.48 5.33 16.47 5.2 322
2023-03-09 12:45 2.07 5.33 5.26 17.62 5.7 290
2023-03-09 11:45 1.97 5.33 5.40 18.47 5.4 297
2023-03-09 10:45 1.94 5.45 5.45 18.90 2.1 12
2023-03-09 09:45 2.00 5.57 5.60 18.77 3.2 5
2023-03-09 08:45 1.80 5.33 5.43 18.11 4.0 39
2023-03-09 07:45 1.80 5.33 5.45 17.16 3.9 43
2023-03-09 06:45 2.00 5.57 5.53 16.11 2.4 7
2023-03-09 05:45 2.20 5.95 5.40 15.29 5.1 18
2023-03-09 04:45 2.26 5.45 5.53 14.90 0.7 219
2023-03-09 03:45 2.26 5.69 5.50 14.99 2.4 108
2023-03-09 02:45 2.43 5.45 5.45 15.62 3.4 35
2023-03-09 01:45 2.66 5.69 5.87 16.57 3.3 30
2023-03-09 00:45 2.59 10.67 5.91 17.62 3.5 31
2023-03-08 23:45 2.49 11.13 5.69 18.44 4.0 31
2023-03-08 22:45 2.66 5.82 5.86 18.83 4.6 30
2023-03-08 21:45 2.69 6.40 5.70 18.67 7.0 5
2023-03-08 20:45 2.76 6.40 5.53 17.98 8.5 352
2023-03-08 19:45 2.92 6.24 5.50 16.96 7.8 347
2023-03-08 18:45 3.28 5.95 5.52 15.81 6.9 330
2023-03-08 17:45 3.02 6.40 5.46 14.83 8.4 322
2023-03-08 16:45 3.35 5.82 5.50 14.27 7.1 309
2023-03-08 15:45 3.44 6.10 5.45 14.30 6.8 304
2023-03-08 14:45 3.28 11.13 5.73 14.86 5.4 287
2023-03-08 13:45 3.08 5.95 5.62 15.91 5.7 281
2023-03-08 12:45 2.95 5.45 5.53 17.22 5.4 257
2023-03-08 11:45 2.82 6.40 5.80 18.37 4.2 245
2023-03-08 10:45 2.79 6.56 6.18 19.13 1.9 285
2023-03-08 09:45 2.69 5.95 6.07 19.32 0.5 300
2023-03-08 08:45 2.82 5.95 6.27 18.93 3.8 117
2023-03-08 07:45 2.82 5.82 6.00 18.04 8.0 101
2023-03-08 06:45 2.72 5.95 5.99 16.99 6.2 100
2023-03-08 05:45 2.82 6.24 5.78 15.98 6.2 105
2023-03-08 04:45 2.85 10.67 5.86 15.29 5.1 121
2023-03-08 03:45 2.82 11.13 5.77 15.16 4.7 96
2023-03-08 02:45 2.79 11.13 5.84 15.52 5.1 98
2023-03-08 01:45 2.82 5.22 5.57 16.21 6.4 99
2023-03-08 00:45 2.76 5.69 5.61 17.19 3.4 92
2023-03-07 23:45 2.99 11.13 5.82 18.11 4.1 39
2023-03-07 22:45 2.89 11.64 6.00 18.64 6.3 318
2023-03-07 21:45 3.12 10.24 5.90 18.60 6.9 319
2023-03-07 20:45 2.99 11.13 5.83 18.11 8.8 319
2023-03-07 19:45 3.12 12.80 5.78 17.13 6.9 323
2023-03-07 18:45 2.79 11.64 5.75 15.91 7.1 308
2023-03-07 17:45 3.18 10.24 5.54 14.86 9.3 303
2023-03-07 16:45 3.44 11.64 5.72 14.17 11.0 302
2023-03-07 15:45 3.25 5.95 5.83 13.98 9.3 300
2023-03-07 14:45 3.31 12.19 6.10 14.37 8.6 300
2023-03-07 13:45 3.15 10.67 6.26 15.32 7.4 297
2023-03-07 12:45 3.12 11.64 6.37 16.67 7.7 308
2023-03-07 11:45 3.08 13.47 6.46 18.04 6.7 325
2023-03-07 10:45 3.08 11.13 6.97 19.06 6.5 340
2023-03-07 09:45 3.08 9.85 6.90 19.55 5.4 352
2023-03-07 08:45 2.92 14.22 6.84 19.49 2.5 33
2023-03-07 07:45 2.95 10.24 6.63 18.83 2.2 42
2023-03-07 06:45 3.05 9.85 6.68 17.78 2.5 71
2023-03-07 05:45 3.05 12.80 6.62 16.70 4.0 22
2023-03-07 04:45 2.95 12.80 6.25 15.88 3.4 33
2023-03-07 03:45 3.05 10.67 6.12 15.42 3.8 24
2023-03-07 02:45 2.82 12.80 6.36 15.49 3.4 32
2023-03-07 01:45 2.89 11.13 6.02 15.98 9.3 17
2023-03-07 00:45 3.02 11.64 6.20 16.77 5.9 26
2023-03-06 23:45 3.22 10.67 6.08 17.65 6.4 25
2023-03-06 22:45 3.28 11.13 6.10 18.31 10.7 338
2023-03-06 21:45 3.22 11.64 6.70 18.50 10.8 334
2023-03-06 20:45 2.99 12.80 7.19 18.21 8.7 320
2023-03-06 19:45 2.99 12.19 7.13 17.36 9.1 308
2023-03-06 18:45 2.99 12.80 7.36 16.21 8.4 298
2023-03-06 17:45 2.85 12.80 7.43 15.06 8.1 296
2023-03-06 16:45 2.79 12.80 7.32 14.21 7.3 294
2023-03-06 15:45 2.82 13.47 7.35 13.81 5.9 285
2023-03-06 14:45 2.76 11.64 7.10 14.01 6.8 278
2023-03-06 13:45 2.95 11.13 7.52 14.83 6.4 292
2023-03-06 12:45 3.12 13.47 8.02 16.08 5.3 300
2023-03-06 11:45 3.18 12.80 8.35 17.49 6.2 284
2023-03-06 10:45 3.05 11.64 8.76 18.73 3.8 297
2023-03-06 09:45 2.82 12.80 8.82 19.55 1.8 264
2023-03-06 08:45 2.79 12.19 8.88 19.75 4.1 107
2023-03-06 07:45 2.62 13.47 8.53 19.32 6.4 104
2023-03-06 06:45 2.56 12.19 8.05 18.47 6.1 97
2023-03-06 05:45 2.33 13.47 7.41 17.42 8.1 98
2023-03-06 04:45 2.53 12.19 7.41 16.47 5.9 97
2023-03-06 03:45 2.66 12.80 7.56 15.88 4.7 96
2023-03-06 02:45 2.40 11.64 7.31 15.68 3.0 86
2023-03-06 01:45 2.40 12.19 7.42 15.94 3.6 86
2023-03-06 00:45 2.33 11.13 7.37 16.50 6.8 102
2023-03-05 23:45 2.33 11.64 7.57 17.32 4.7 122
2023-03-05 22:45 2.46 10.67 7.91 18.04 3.3 33
2023-03-05 21:45 2.36 11.64 7.55 18.34 5.2 332
2023-03-05 20:45 2.30 11.64 7.69 18.18 6.1 328
2023-03-05 19:45 2.23 10.67 7.31 17.49 3.8 295
2023-03-05 18:45 2.17 11.13 6.91 16.44 5.0 265
2023-03-05 17:45 2.30 10.67 6.81 15.26 4.2 317
2023-03-05 16:45 2.40 12.19 6.76 14.34 6.1 318
2023-03-05 15:45 2.46 10.67 6.27 13.78 4.9 301
2023-03-05 14:45 2.49 10.67 6.24 13.78 8.9 290
2023-03-05 13:45 2.59 10.67 6.36 14.37 6.3 285
2023-03-05 12:45 2.33 10.24 5.86 15.45 6.7 286
2023-03-05 11:45 2.40 12.19 6.28 16.83 4.5 292
2023-03-05 10:45 2.56 12.19 6.76 18.18 2.5 343
2023-03-05 09:45 2.53 12.19 6.45 19.19 3.8 1
2023-03-05 08:45 2.59 12.80 6.33 19.72 3.4 359
2023-03-05 07:45 2.46 13.47 6.39 19.62 3.0 34
2023-03-05 06:45 2.43 12.80 6.18 19.03 6.5 321
2023-03-05 05:45 2.30 12.80 6.18 18.11 6.9 282
2023-03-05 04:45 2.26 11.64 6.05 17.16 4.6 235
2023-03-05 03:45 2.36 9.85 6.03 16.40 5.6 250
2023-03-05 02:45 2.53 11.64 5.77 16.01 8.5 283
2023-03-05 01:45 2.82 12.80 5.35 16.11 10.6 283
2023-03-05 00:45 3.12 8.26 5.20 16.50 11.8 288
2023-03-04 23:45 3.05 11.13 6.11 17.13 8.9 292
2023-03-04 22:45 3.12 8.26 6.55 17.81 8.8 285
2023-03-04 21:45 2.79 13.47 6.63 18.21 3.7 279
2023-03-04 20:45 2.85 9.48 6.73 18.18 3.7 303
2023-03-04 19:45 2.53 9.14 6.44 17.65 3.0 302
2023-03-04 18:45 2.43 7.31 5.96 16.77 3.6 257
2023-03-04 17:45 2.33 9.85 5.97 15.62 5.5 261
2023-03-04 16:45 2.40 9.48 6.31 14.57 6.0 262
2023-03-04 15:45 2.33 8.26 5.82 13.88 5.9 265
2023-03-04 14:45 2.30 8.00 5.62 13.68 8.7 271
2023-03-04 13:45 2.13 9.48 5.80 14.07 8.0 254
2023-03-04 12:45 2.17 6.92 5.90 14.96 5.2 238
2023-03-04 11:45 2.36 9.85 6.30 16.17 4.0 185
2023-03-04 10:45 2.23 7.53 5.93 17.49 3.2 200
2023-03-04 09:45 2.20 7.31 6.21 18.64 4.4 141
2023-03-04 08:45 2.36 8.00 6.22 19.39 6.1 125
2023-03-04 07:45 2.56 7.11 6.31 19.62 3.9 136
2023-03-04 06:45 2.46 8.00 6.59 19.32 7.6 122
2023-03-04 05:45 2.49 6.92 6.64 18.60 6.6 115
2023-03-04 04:45 2.62 7.76 6.61 17.72 3.8 121
2023-03-04 03:45 2.59 7.31 6.82 16.96 5.0 115
2023-03-04 02:45 2.89 10.24 7.18 16.44 6.7 102
2023-03-04 01:45 2.92 8.00 6.95 16.34 4.7 103
2023-03-04 00:45 2.95 9.14 7.03 16.57 0.5 102
2023-03-03 23:45 3.02 9.48 7.24 17.03 0.1 98
2023-03-03 22:45 3.12 10.24 7.24 17.62 0.1 160
2023-03-03 21:45 2.99 10.67 7.27 18.01 0.0 147
2023-03-03 20:45 2.92 10.67 7.20 18.11 0.3 152
2023-03-03 19:45 2.85 10.24 7.17 17.81 0.8 80
2023-03-03 18:45 3.28 10.24 7.42 17.03 2.0 335
2023-03-03 17:45 2.92 10.67 7.18 16.01 3.9 294
2023-03-03 16:45 3.02 10.67 7.03 14.99 4.7 283
2023-03-03 15:45 3.02 10.67 7.07 14.17 4.2 270
2023-03-03 14:45 3.12 11.13 6.90 13.81 4.0 269
2023-03-03 13:45 2.95 11.13 6.91 13.91 4.2 283
2023-03-03 12:45 2.89 11.13 6.82 14.57 5.1 289
2023-03-03 11:45 2.82 11.64 6.77 15.58 4.1 284
2023-03-03 10:45 2.72 8.00 6.64 16.77 3.6 300
2023-03-03 09:45 2.76 8.83 6.68 17.95 1.4 314
2023-03-03 08:45 2.92 10.24 6.87 18.90 4.9 109
2023-03-03 07:45 3.28 9.48 7.17 19.36 4.2 92
2023-03-03 06:45 3.18 11.64 7.07 19.36 8.4 100
2023-03-03 05:45 3.22 9.85 7.61 18.90 6.6 94
2023-03-03 04:45 3.44 9.14 7.80 18.21 7.3 95
2023-03-03 03:45 3.54 9.48 7.52 17.45 6.7 87
2023-03-03 02:45 3.97 11.64 7.73 16.93 5.3 97
2023-03-03 01:45 4.20 9.85 7.52 16.63 6.0 102
2023-03-03 00:45 3.90 10.24 7.46 16.70 3.8 96
2023-03-02 23:45 4.17 11.64 7.48 17.06 4.9 101
2023-03-02 22:45 4.00 9.48 7.73 17.45 2.2 120
2023-03-02 21:45 3.61 10.24 7.49 17.85 2.6 145
2023-03-02 20:45 4.00 11.64 7.24 18.01 2.6 156
2023-03-02 19:45 3.90 11.13 7.40 17.78 2.0 150
2023-03-02 18:45 3.71 12.19 7.01 17.26 4.3 240
2023-03-02 17:45 4.27 10.67 6.92 16.37 5.9 260
2023-03-02 16:45 4.33 11.64 6.62 15.42 6.4 241
2023-03-02 15:45 4.33 10.67 6.53 14.60 9.2 235
2023-03-02 14:45 4.49 11.13 6.45 14.04 7.5 238
2023-03-02 13:45 4.69 11.64 6.31 13.91 6.1 248
2023-03-02 12:45 4.66 10.67 6.34 14.30 6.1 246
2023-03-02 11:45 4.92 10.24 6.17 15.09 3.1 268
2023-03-02 10:45 5.51 10.24 6.48 16.04 2.3 318
2023-03-02 09:45 5.91 9.85 6.90 17.19 4.3 141
2023-03-02 08:45 6.04 10.24 6.85 18.14 7.0 107
2023-03-02 07:45 6.17 11.13 7.14 18.83 9.5 102
2023-03-02 06:45 6.23 11.13 6.93 19.06 8.0 104
2023-03-02 05:45 6.20 10.67 6.84 18.93 5.9 106
2023-03-02 04:45 7.02 11.13 6.81 18.50 6.5 93
2023-03-02 03:45 6.46 6.92 6.43 17.95 3.7 34
2023-03-02 02:45 7.48 7.53 6.31 17.36 8.2 55
2023-03-02 01:45 7.97 7.76 5.98 16.99 9.8 19
2023-03-02 00:45 8.33 9.14 5.71 16.83 20.2 339
2023-03-01 23:45 8.33 9.14 5.82 16.96 21.0 328
2023-03-01 22:45 8.50 7.76 5.78 17.26 18.7 330
2023-03-01 21:45 9.38 9.14 5.86 17.59 20.9 317
2023-03-01 20:45 9.42 8.83 5.79 17.72 21.8 314
2023-03-01 19:45 9.81 7.53 5.69 17.62 22.3 309
2023-03-01 18:45 9.51 8.26 5.68 17.26 24.6 311
2023-03-01 17:45 9.58 8.26 5.64 16.60 23.8 318
2023-03-01 16:45 9.58 7.31 5.49 15.85 27.8 304
2023-03-01 15:45 8.46 7.11 5.20 15.12 26.5 287
2023-03-01 14:45 8.04 6.56 5.21 14.53 26.4 284
2023-03-01 13:45 7.51 7.11 5.20 14.27 25.8 292
2023-03-01 12:45 7.09 6.74 5.33 14.40 18.8 280
2023-03-01 11:45 7.35 6.92 5.47 14.90 21.5 304
2023-03-01 10:45 7.02 6.40 5.58 15.65 22.9 296
2023-03-01 09:45 6.40 6.74 5.76 16.60 20.1 246
2023-03-01 08:45 6.53 6.74 5.71 17.55 17.8 261
2023-03-01 07:45 6.40 6.24 5.70 18.31 20.0 252
2023-03-01 06:45 5.58 5.57 5.95 18.80 23.5 229
2023-03-01 05:45 4.86 5.95 5.74 19.00 20.1 224
2023-03-01 04:45 4.56 5.33 5.73 18.90 20.0 230
2023-03-01 03:45 4.13 10.67 5.64 18.50 19.3 230
2023-03-01 02:45 3.81 11.64 5.70 18.08 15.1 229
2023-03-01 01:45 3.67 12.80 6.36 17.65 17.6 222
2023-03-01 00:45 3.51 11.64 7.07 17.39 15.4 221
2023-02-28 23:45 3.90 11.64 7.63 17.32 11.0 200
2023-02-28 22:45 3.48 12.80 7.23 17.45 9.3 212
2023-02-28 21:45 3.41 12.19 6.98 17.62 9.5 244
2023-02-28 20:45 3.25 12.19 6.86 17.68 8.7 251
2023-02-28 19:45 3.67 11.64 7.23 17.68 4.1 245
2023-02-28 18:45 3.61 12.19 6.95 17.49 7.7 259
2023-02-28 17:45 3.54 12.19 6.52 17.03 8.2 283